sensor_id;sensor_type;location;lat;lon;timestamp;temperature;humidity
68251;DHT22;55066;51.560;4.642;2023-05-09T00:01:26;14.25;99.99
68251;DHT22;55066;51.560;4.642;2023-05-09T00:03:56;14.15;99.99
68251;DHT22;55066;51.560;4.642;2023-05-09T00:06:21;14.18;99.99
68251;DHT22;55066;51.560;4.642;2023-05-09T00:08:47;14.18;99.99
68251;DHT22;55066;51.560;4.642;2023-05-09T00:11:12;14.22;99.99
68251;DHT22;55066;51.560;4.642;2023-05-09T00:13:38;14.13;99.99
68251;DHT22;55066;51.560;4.642;2023-05-09T00:16:03;14.08;99.99
68251;DHT22;55066;51.560;4.642;2023-05-09T00:18:30;14.02;99.99
68251;DHT22;55066;51.560;4.642;2023-05-09T00:20:55;14.04;99.99
68251;DHT22;55066;51.560;4.642;2023-05-09T00:23:22;14.06;99.99
68251;DHT22;55066;51.560;4.642;2023-05-09T00:25:48;14.02;99.99
68251;DHT22;55066;51.560;4.642;2023-05-09T00:28:14;14.04;99.99
68251;DHT22;55066;51.560;4.642;2023-05-09T00:30:41;14.02;99.99
68251;DHT22;55066;51.560;4.642;2023-05-09T00:33:06;14.00;99.99
68251;DHT22;55066;51.560;4.642;2023-05-09T00:35:32;14.00;99.99
68251;DHT22;55066;51.560;4.642;2023-05-09T00:37:57;13.97;99.99
68251;DHT22;55066;51.560;4.642;2023-05-09T00:40:25;13.97;99.99
68251;DHT22;55066;51.560;4.642;2023-05-09T00:42:52;14.08;99.99
68251;DHT22;55066;51.560;4.642;2023-05-09T00:45:19;14.05;99.99
68251;DHT22;55066;51.560;4.642;2023-05-09T00:47:44;14.01;99.99
68251;DHT22;55066;51.560;4.642;2023-05-09T00:50:09;14.05;99.99
68251;DHT22;55066;51.560;4.642;2023-05-09T00:52:36;14.08;99.99
68251;DHT22;55066;51.560;4.642;2023-05-09T00:55:01;14.05;99.99
68251;DHT22;55066;51.560;4.642;2023-05-09T00:57:27;14.04;99.99
68251;DHT22;55066;51.560;4.642;2023-05-09T00:59:52;14.04;99.99
68251;DHT22;55066;51.560;4.642;2023-05-09T01:02:18;14.01;99.99
68251;DHT22;55066;51.560;4.642;2023-05-09T01:04:45;13.97;99.99
68251;DHT22;55066;51.560;4.642;2023-05-09T01:07:34;14.00;99.99
68251;DHT22;55066;51.560;4.642;2023-05-09T01:10:12;13.98;99.99
68251;DHT22;55066;51.560;4.642;2023-05-09T01:19:21;13.97;99.99
68251;DHT22;55066;51.560;4.642;2023-05-09T01:21:42;13.94;99.99
68251;DHT22;55066;51.560;4.642;2023-05-09T01:24:21;13.98;99.99
68251;DHT22;55066;51.560;4.642;2023-05-09T01:27:08;14.04;99.99
68251;DHT22;55066;51.560;4.642;2023-05-09T01:29:46;13.94;99.99
68251;DHT22;55066;51.560;4.642;2023-05-09T01:32:16;13.91;99.99
68251;DHT22;55066;51.560;4.642;2023-05-09T01:34:44;13.94;99.99
68251;DHT22;55066;51.560;4.642;2023-05-09T01:37:13;13.98;99.99
68251;DHT22;55066;51.560;4.642;2023-05-09T01:39:41;13.95;99.99
68251;DHT22;55066;51.560;4.642;2023-05-09T01:42:09;13.85;99.99
68251;DHT22;55066;51.560;4.642;2023-05-09T01:44:38;13.79;99.99
68251;DHT22;55066;51.560;4.642;2023-05-09T01:47:04;13.74;99.99
68251;DHT22;55066;51.560;4.642;2023-05-09T01:49:34;13.73;99.99
68251;DHT22;55066;51.560;4.642;2023-05-09T01:52:10;13.75;99.99
68251;DHT22;55066;51.560;4.642;2023-05-09T01:54:38;13.81;99.99
68251;DHT22;55066;51.560;4.642;2023-05-09T01:57:05;13.82;99.99
68251;DHT22;55066;51.560;4.642;2023-05-09T01:59:32;13.82;99.99
68251;DHT22;55066;51.560;4.642;2023-05-09T02:01:59;13.84;99.99
68251;DHT22;55066;51.560;4.642;2023-05-09T02:04:27;13.86;99.99
68251;DHT22;55066;51.560;4.642;2023-05-09T02:06:53;13.88;99.99
68251;DHT22;55066;51.560;4.642;2023-05-09T02:09:19;13.81;99.99
68251;DHT22;55066;51.560;4.642;2023-05-09T02:11:46;13.81;99.99
68251;DHT22;55066;51.560;4.642;2023-05-09T02:14:12;13.95;99.99
68251;DHT22;55066;51.560;4.642;2023-05-09T02:16:39;13.94;99.99
68251;DHT22;55066;51.560;4.642;2023-05-09T02:19:05;13.88;99.99
68251;DHT22;55066;51.560;4.642;2023-05-09T02:21:32;13.82;99.99
68251;DHT22;55066;51.560;4.642;2023-05-09T02:23:59;13.84;99.99
68251;DHT22;55066;51.560;4.642;2023-05-09T02:26:29;13.81;99.99
68251;DHT22;55066;51.560;4.642;2023-05-09T02:28:56;13.92;99.99
68251;DHT22;55066;51.560;4.642;2023-05-09T02:31:25;14.11;99.99
68251;DHT22;55066;51.560;4.642;2023-05-09T02:33:53;14.05;99.66
68251;DHT22;55066;51.560;4.642;2023-05-09T02:36:21;14.04;99.99
68251;DHT22;55066;51.560;4.642;2023-05-09T02:38:48;14.19;99.99
68251;DHT22;55066;51.560;4.642;2023-05-09T02:41:16;14.01;99.50
68251;DHT22;55066;51.560;4.642;2023-05-09T02:43:42;13.98;99.99
68251;DHT22;55066;51.560;4.642;2023-05-09T02:46:08;13.94;98.73
68251;DHT22;55066;51.560;4.642;2023-05-09T02:48:34;13.97;99.99
68251;DHT22;55066;51.560;4.642;2023-05-09T02:51:00;14.00;99.99
68251;DHT22;55066;51.560;4.642;2023-05-09T02:53:25;13.95;99.99
68251;DHT22;55066;51.560;4.642;2023-05-09T02:55:50;14.08;98.93
68251;DHT22;55066;51.560;4.642;2023-05-09T02:58:18;14.19;99.04
68251;DHT22;55066;51.560;4.642;2023-05-09T03:00:44;14.19;99.99
68251;DHT22;55066;51.560;4.642;2023-05-09T03:03:11;14.02;99.99
68251;DHT22;55066;51.560;4.642;2023-05-09T03:05:37;13.94;99.99
68251;DHT22;55066;51.560;4.642;2023-05-09T03:08:04;13.91;99.99
68251;DHT22;55066;51.560;4.642;2023-05-09T03:10:30;13.95;99.00
68251;DHT22;55066;51.560;4.642;2023-05-09T03:12:55;14.04;99.99
68251;DHT22;55066;51.560;4.642;2023-05-09T03:15:21;13.98;99.99
68251;DHT22;55066;51.560;4.642;2023-05-09T03:17:47;13.94;99.99
68251;DHT22;55066;51.560;4.642;2023-05-09T03:20:16;13.95;99.99
68251;DHT22;55066;51.560;4.642;2023-05-09T03:22:42;13.92;99.99
68251;DHT22;55066;51.560;4.642;2023-05-09T03:25:09;13.89;99.99
68251;DHT22;55066;51.560;4.642;2023-05-09T03:27:35;13.86;99.99
68251;DHT22;55066;51.560;4.642;2023-05-09T03:30:05;13.81;99.99
68251;DHT22;55066;51.560;4.642;2023-05-09T03:32:31;13.82;99.99
68251;DHT22;55066;51.560;4.642;2023-05-09T03:34:56;13.92;99.99
68251;DHT22;55066;51.560;4.642;2023-05-09T03:37:22;14.08;99.58
68251;DHT22;55066;51.560;4.642;2023-05-09T03:39:48;14.09;99.99
68251;DHT22;55066;51.560;4.642;2023-05-09T03:42:14;14.04;99.99
68251;DHT22;55066;51.560;4.642;2023-05-09T03:44:43;13.92;99.99
68251;DHT22;55066;51.560;4.642;2023-05-09T03:47:09;13.94;99.99
68251;DHT22;55066;51.560;4.642;2023-05-09T03:49:38;13.98;99.99
68251;DHT22;55066;51.560;4.642;2023-05-09T03:52:04;13.94;99.99
68251;DHT22;55066;51.560;4.642;2023-05-09T03:54:30;13.88;99.99
68251;DHT22;55066;51.560;4.642;2023-05-09T03:56:56;13.92;99.99
68251;DHT22;55066;51.560;4.642;2023-05-09T03:59:22;13.98;99.99
68251;DHT22;55066;51.560;4.642;2023-05-09T04:01:47;13.98;99.99
68251;DHT22;55066;51.560;4.642;2023-05-09T04:04:14;13.98;99.99
68251;DHT22;55066;51.560;4.642;2023-05-09T04:06:40;13.98;99.99
68251;DHT22;55066;51.560;4.642;2023-05-09T04:09:08;14.00;99.99
68251;DHT22;55066;51.560;4.642;2023-05-09T04:11:34;14.08;99.49
68251;DHT22;55066;51.560;4.642;2023-05-09T04:14:00;14.11;99.99
68251;DHT22;55066;51.560;4.642;2023-05-09T04:16:34;14.06;99.99
68251;DHT22;55066;51.560;4.642;2023-05-09T04:18:59;14.01;99.99
68251;DHT22;55066;51.560;4.642;2023-05-09T04:21:25;14.05;99.99
68251;DHT22;55066;51.560;4.642;2023-05-09T04:23:54;14.13;99.99
68251;DHT22;55066;51.560;4.642;2023-05-09T04:26:28;14.20;99.99
68251;DHT22;55066;51.560;4.642;2023-05-09T04:28:55;14.25;99.99
68251;DHT22;55066;51.560;4.642;2023-05-09T04:31:21;14.30;99.99
68251;DHT22;55066;51.560;4.642;2023-05-09T04:33:49;14.28;99.99
68251;DHT22;55066;51.560;4.642;2023-05-09T04:36:16;14.25;99.99
68251;DHT22;55066;51.560;4.642;2023-05-09T04:38:43;14.22;99.99
68251;DHT22;55066;51.560;4.642;2023-05-09T04:41:14;14.23;99.99
68251;DHT22;55066;51.560;4.642;2023-05-09T04:43:40;14.32;99.99
68251;DHT22;55066;51.560;4.642;2023-05-09T04:46:06;14.22;99.99
68251;DHT22;55066;51.560;4.642;2023-05-09T04:48:34;14.15;99.99
68251;DHT22;55066;51.560;4.642;2023-05-09T04:50:59;14.19;99.99
68251;DHT22;55066;51.560;4.642;2023-05-09T04:53:25;14.11;99.99
68251;DHT22;55066;51.560;4.642;2023-05-09T04:55:52;14.02;99.99
68251;DHT22;55066;51.560;4.642;2023-05-09T04:58:18;13.94;99.99
68251;DHT22;55066;51.560;4.642;2023-05-09T05:00:47;13.88;99.99
68251;DHT22;55066;51.560;4.642;2023-05-09T05:03:13;13.86;99.99
68251;DHT22;55066;51.560;4.642;2023-05-09T05:05:38;13.86;99.99
68251;DHT22;55066;51.560;4.642;2023-05-09T05:08:04;13.88;99.99
68251;DHT22;55066;51.560;4.642;2023-05-09T05:10:34;13.82;99.99
68251;DHT22;55066;51.560;4.642;2023-05-09T05:13:05;13.75;99.99
68251;DHT22;55066;51.560;4.642;2023-05-09T05:15:32;13.77;99.99
68251;DHT22;55066;51.560;4.642;2023-05-09T05:17:59;13.77;99.99
68251;DHT22;55066;51.560;4.642;2023-05-09T05:20:31;13.79;99.99
68251;DHT22;55066;51.560;4.642;2023-05-09T05:23:01;13.77;99.99
68251;DHT22;55066;51.560;4.642;2023-05-09T05:25:26;13.86;99.99
68251;DHT22;55066;51.560;4.642;2023-05-09T05:27:57;13.88;99.99
68251;DHT22;55066;51.560;4.642;2023-05-09T05:30:24;13.85;99.99
68251;DHT22;55066;51.560;4.642;2023-05-09T05:32:57;13.86;99.99
68251;DHT22;55066;51.560;4.642;2023-05-09T05:35:25;13.78;99.99
68251;DHT22;55066;51.560;4.642;2023-05-09T05:37:53;13.79;99.99
68251;DHT22;55066;51.560;4.642;2023-05-09T05:40:20;13.81;99.99
68251;DHT22;55066;51.560;4.642;2023-05-09T05:42:48;13.86;99.99
68251;DHT22;55066;51.560;4.642;2023-05-09T05:45:17;13.81;99.99
68251;DHT22;55066;51.560;4.642;2023-05-09T05:47:51;13.77;99.99
68251;DHT22;55066;51.560;4.642;2023-05-09T05:50:18;13.71;99.99
68251;DHT22;55066;51.560;4.642;2023-05-09T05:52:43;13.75;99.99
68251;DHT22;55066;51.560;4.642;2023-05-09T05:55:12;13.71;99.99
68251;DHT22;55066;51.560;4.642;2023-05-09T05:57:39;13.70;99.99
68251;DHT22;55066;51.560;4.642;2023-05-09T06:00:07;13.68;99.99
68251;DHT22;55066;51.560;4.642;2023-05-09T06:02:41;13.68;99.99
68251;DHT22;55066;51.560;4.642;2023-05-09T06:05:12;13.67;99.99
68251;DHT22;55066;51.560;4.642;2023-05-09T06:07:39;13.65;99.99
68251;DHT22;55066;51.560;4.642;2023-05-09T06:10:06;13.65;99.99
68251;DHT22;55066;51.560;4.642;2023-05-09T06:12:32;13.67;99.99
68251;DHT22;55066;51.560;4.642;2023-05-09T06:14:57;13.68;99.99
68251;DHT22;55066;51.560;4.642;2023-05-09T06:17:23;13.70;99.99
68251;DHT22;55066;51.560;4.642;2023-05-09T06:19:48;13.73;99.99
68251;DHT22;55066;51.560;4.642;2023-05-09T06:22:14;13.77;99.99
68251;DHT22;55066;51.560;4.642;2023-05-09T06:24:39;13.82;99.99
68251;DHT22;55066;51.560;4.642;2023-05-09T06:27:05;13.79;99.99
68251;DHT22;55066;51.560;4.642;2023-05-09T06:29:30;13.86;99.99
68251;DHT22;55066;51.560;4.642;2023-05-09T06:31:56;13.85;99.99
68251;DHT22;55066;51.560;4.642;2023-05-09T06:34:21;13.84;99.99
68251;DHT22;55066;51.560;4.642;2023-05-09T06:36:46;13.82;99.99
68251;DHT22;55066;51.560;4.642;2023-05-09T06:39:13;13.77;99.99
68251;DHT22;55066;51.560;4.642;2023-05-09T06:41:38;13.74;99.99
68251;DHT22;55066;51.560;4.642;2023-05-09T06:44:06;13.79;99.99
68251;DHT22;55066;51.560;4.642;2023-05-09T06:46:31;13.65;99.99
68251;DHT22;55066;51.560;4.642;2023-05-09T06:48:56;13.88;99.99
68251;DHT22;55066;51.560;4.642;2023-05-09T06:51:22;13.75;99.99
68251;DHT22;55066;51.560;4.642;2023-05-09T06:53:47;13.91;99.99
68251;DHT22;55066;51.560;4.642;2023-05-09T06:56:13;13.88;99.99
68251;DHT22;55066;51.560;4.642;2023-05-09T06:58:38;13.91;99.99
68251;DHT22;55066;51.560;4.642;2023-05-09T07:01:04;13.89;99.99
68251;DHT22;55066;51.560;4.642;2023-05-09T07:03:29;13.85;99.99
68251;DHT22;55066;51.560;4.642;2023-05-09T07:05:56;13.92;99.99
68251;DHT22;55066;51.560;4.642;2023-05-09T07:08:23;13.94;99.99
68251;DHT22;55066;51.560;4.642;2023-05-09T07:10:49;13.92;99.99
68251;DHT22;55066;51.560;4.642;2023-05-09T07:13:15;13.97;99.99
68251;DHT22;55066;51.560;4.642;2023-05-09T07:15:40;13.98;99.99
68251;DHT22;55066;51.560;4.642;2023-05-09T07:18:06;14.02;99.99
68251;DHT22;55066;51.560;4.642;2023-05-09T07:20:31;14.09;99.99
68251;DHT22;55066;51.560;4.642;2023-05-09T07:22:56;14.08;99.99
68251;DHT22;55066;51.560;4.642;2023-05-09T07:25:22;13.97;99.99
68251;DHT22;55066;51.560;4.642;2023-05-09T07:27:48;13.84;99.99
68251;DHT22;55066;51.560;4.642;2023-05-09T07:30:13;13.91;99.99
68251;DHT22;55066;51.560;4.642;2023-05-09T07:32:39;14.04;99.99
68251;DHT22;55066;51.560;4.642;2023-05-09T07:35:04;13.95;99.99
68251;DHT22;55066;51.560;4.642;2023-05-09T07:37:30;13.98;99.99
68251;DHT22;55066;51.560;4.642;2023-05-09T07:39:56;14.05;99.99
68251;DHT22;55066;51.560;4.642;2023-05-09T07:42:21;14.01;99.99
68251;DHT22;55066;51.560;4.642;2023-05-09T07:44:46;14.13;99.99
68251;DHT22;55066;51.560;4.642;2023-05-09T07:47:12;14.09;99.99
68251;DHT22;55066;51.560;4.642;2023-05-09T07:49:37;14.12;99.99
68251;DHT22;55066;51.560;4.642;2023-05-09T07:52:04;14.19;99.99
68251;DHT22;55066;51.560;4.642;2023-05-09T07:54:30;14.18;99.99
68251;DHT22;55066;51.560;4.642;2023-05-09T07:56:55;14.20;99.99
68251;DHT22;55066;51.560;4.642;2023-05-09T07:59:20;14.19;99.99
68251;DHT22;55066;51.560;4.642;2023-05-09T08:01:46;14.13;99.99
68251;DHT22;55066;51.560;4.642;2023-05-09T08:04:11;14.11;99.99
68251;DHT22;55066;51.560;4.642;2023-05-09T08:06:37;14.11;99.99
68251;DHT22;55066;51.560;4.642;2023-05-09T08:09:02;14.11;99.99
68251;DHT22;55066;51.560;4.642;2023-05-09T08:11:29;14.15;99.99
68251;DHT22;55066;51.560;4.642;2023-05-09T08:13:56;14.13;99.99
68251;DHT22;55066;51.560;4.642;2023-05-09T08:16:22;14.15;99.99
68251;DHT22;55066;51.560;4.642;2023-05-09T08:18:47;14.20;99.99
68251;DHT22;55066;51.560;4.642;2023-05-09T08:21:12;14.19;99.99
68251;DHT22;55066;51.560;4.642;2023-05-09T08:23:39;14.16;99.99
68251;DHT22;55066;51.560;4.642;2023-05-09T08:26:05;14.19;99.99
68251;DHT22;55066;51.560;4.642;2023-05-09T08:28:30;14.19;99.99
68251;DHT22;55066;51.560;4.642;2023-05-09T08:30:56;14.19;99.99
68251;DHT22;55066;51.560;4.642;2023-05-09T08:33:22;14.43;99.99
68251;DHT22;55066;51.560;4.642;2023-05-09T08:35:52;14.43;99.99
68251;DHT22;55066;51.560;4.642;2023-05-09T08:38:18;14.60;99.99
68251;DHT22;55066;51.560;4.642;2023-05-09T08:40:43;14.70;99.99
68251;DHT22;55066;51.560;4.642;2023-05-09T08:43:10;14.70;99.99
68251;DHT22;55066;51.560;4.642;2023-05-09T08:45:57;14.74;99.99
68251;DHT22;55066;51.560;4.642;2023-05-09T08:48:26;14.60;99.99
68251;DHT22;55066;51.560;4.642;2023-05-09T08:50:53;14.56;99.99
68251;DHT22;55066;51.560;4.642;2023-05-09T08:53:19;14.66;99.99
68251;DHT22;55066;51.560;4.642;2023-05-09T08:55:46;14.63;99.99
68251;DHT22;55066;51.560;4.642;2023-05-09T08:58:12;14.56;99.99
68251;DHT22;55066;51.560;4.642;2023-05-09T09:00:40;14.53;99.99
68251;DHT22;55066;51.560;4.642;2023-05-09T09:03:06;14.49;99.99
68251;DHT22;55066;51.560;4.642;2023-05-09T09:05:35;14.53;99.99
68251;DHT22;55066;51.560;4.642;2023-05-09T09:08:03;14.51;99.99
68251;DHT22;55066;51.560;4.642;2023-05-09T09:10:32;14.51;99.99
68251;DHT22;55066;51.560;4.642;2023-05-09T09:12:59;14.53;99.99
68251;DHT22;55066;51.560;4.642;2023-05-09T09:15:27;14.63;99.99
68251;DHT22;55066;51.560;4.642;2023-05-09T09:17:54;14.60;99.99
68251;DHT22;55066;51.560;4.642;2023-05-09T09:20:25;14.67;99.99
68251;DHT22;55066;51.560;4.642;2023-05-09T09:22:57;14.51;99.99
68251;DHT22;55066;51.560;4.642;2023-05-09T09:25:24;14.40;99.99
68251;DHT22;55066;51.560;4.642;2023-05-09T09:27:50;14.36;99.99
68251;DHT22;55066;51.560;4.642;2023-05-09T09:30:16;14.39;99.99
68251;DHT22;55066;51.560;4.642;2023-05-09T09:32:41;14.53;99.99
68251;DHT22;55066;51.560;4.642;2023-05-09T09:35:09;14.63;99.99
68251;DHT22;55066;51.560;4.642;2023-05-09T09:37:36;14.84;99.99
68251;DHT22;55066;51.560;4.642;2023-05-09T09:40:09;14.73;99.99
68251;DHT22;55066;51.560;4.642;2023-05-09T09:42:44;14.85;99.99
68251;DHT22;55066;51.560;4.642;2023-05-09T09:45:18;14.80;99.99
68251;DHT22;55066;51.560;4.642;2023-05-09T09:47:45;14.94;99.99
68251;DHT22;55066;51.560;4.642;2023-05-09T09:50:13;14.89;99.99
68251;DHT22;55066;51.560;4.642;2023-05-09T09:52:59;14.80;99.99
68251;DHT22;55066;51.560;4.642;2023-05-09T09:55:25;14.77;99.99
68251;DHT22;55066;51.560;4.642;2023-05-09T09:57:51;14.63;99.99
68251;DHT22;55066;51.560;4.642;2023-05-09T10:00:18;14.66;99.99
68251;DHT22;55066;51.560;4.642;2023-05-09T10:02:51;14.67;99.99
68251;DHT22;55066;51.560;4.642;2023-05-09T10:05:22;14.66;99.99
68251;DHT22;55066;51.560;4.642;2023-05-09T10:07:57;14.51;99.99
68251;DHT22;55066;51.560;4.642;2023-05-09T10:10:31;14.70;99.99
68251;DHT22;55066;51.560;4.642;2023-05-09T10:13:16;14.94;99.99
68251;DHT22;55066;51.560;4.642;2023-05-09T10:15:44;14.96;99.99
68251;DHT22;55066;51.560;4.642;2023-05-09T10:18:11;14.89;99.99
68251;DHT22;55066;51.560;4.642;2023-05-09T10:20:38;14.63;99.99
68251;DHT22;55066;51.560;4.642;2023-05-09T10:23:06;14.55;99.99
68251;DHT22;55066;51.560;4.642;2023-05-09T10:28:03;14.91;99.99
68251;DHT22;55066;51.560;4.642;2023-05-09T10:30:35;14.84;99.99
68251;DHT22;55066;51.560;4.642;2023-05-09T10:33:08;14.77;99.99
68251;DHT22;55066;51.560;4.642;2023-05-09T10:35:45;14.88;99.99
68251;DHT22;55066;51.560;4.642;2023-05-09T10:38:13;14.71;99.99
68251;DHT22;55066;51.560;4.642;2023-05-09T10:40:42;14.63;99.99
68251;DHT22;55066;51.560;4.642;2023-05-09T10:43:10;14.74;99.99
68251;DHT22;55066;51.560;4.642;2023-05-09T10:45:37;14.66;99.99
68251;DHT22;55066;51.560;4.642;2023-05-09T10:48:05;14.60;99.99
68251;DHT22;55066;51.560;4.642;2023-05-09T10:50:33;14.73;99.99
68251;DHT22;55066;51.560;4.642;2023-05-09T10:55:52;14.71;99.99
68251;DHT22;55066;51.560;4.642;2023-05-09T10:58:30;14.88;99.99
68251;DHT22;55066;51.560;4.642;2023-05-09T11:01:02;14.94;99.99
68251;DHT22;55066;51.560;4.642;2023-05-09T11:03:54;14.91;99.99
68251;DHT22;55066;51.560;4.642;2023-05-09T11:06:44;14.89;99.99
68251;DHT22;55066;51.560;4.642;2023-05-09T11:09:34;15.02;99.99
68251;DHT22;55066;51.560;4.642;2023-05-09T11:12:08;15.08;99.99
68251;DHT22;55066;51.560;4.642;2023-05-09T11:14:48;14.95;99.99
68251;DHT22;55066;51.560;4.642;2023-05-09T11:22:23;14.92;99.99
68251;DHT22;55066;51.560;4.642;2023-05-09T11:24:51;14.96;99.99
68251;DHT22;55066;51.560;4.642;2023-05-09T11:27:23;14.94;99.99
68251;DHT22;55066;51.560;4.642;2023-05-09T11:29:50;15.05;99.99
68251;DHT22;55066;51.560;4.642;2023-05-09T11:32:17;15.05;99.99
68251;DHT22;55066;51.560;4.642;2023-05-09T11:34:43;14.91;99.99
68251;DHT22;55066;51.560;4.642;2023-05-09T11:37:13;14.91;99.99
68251;DHT22;55066;51.560;4.642;2023-05-09T11:39:58;14.91;99.99
68251;DHT22;55066;51.560;4.642;2023-05-09T11:42:27;14.87;99.99
68251;DHT22;55066;51.560;4.642;2023-05-09T11:44:53;14.89;99.99
68251;DHT22;55066;51.560;4.642;2023-05-09T11:47:19;14.89;99.99
68251;DHT22;55066;51.560;4.642;2023-05-09T11:49:49;15.02;99.99
68251;DHT22;55066;51.560;4.642;2023-05-09T11:52:21;14.95;99.99
68251;DHT22;55066;51.560;4.642;2023-05-09T11:54:48;14.89;99.99
68251;DHT22;55066;51.560;4.642;2023-05-09T11:57:14;14.98;99.99
68251;DHT22;55066;51.560;4.642;2023-05-09T11:59:45;15.14;99.99
68251;DHT22;55066;51.560;4.642;2023-05-09T12:02:11;15.23;99.99
68251;DHT22;55066;51.560;4.642;2023-05-09T12:04:36;15.46;99.99
68251;DHT22;55066;51.560;4.642;2023-05-09T12:07:03;15.29;99.99
68251;DHT22;55066;51.560;4.642;2023-05-09T12:09:29;15.21;99.99
68251;DHT22;55066;51.560;4.642;2023-05-09T12:12:01;15.18;99.99
68251;DHT22;55066;51.560;4.642;2023-05-09T12:14:30;15.29;99.99
68251;DHT22;55066;51.560;4.642;2023-05-09T12:16:56;15.11;99.99
68251;DHT22;55066;51.560;4.642;2023-05-09T12:19:23;14.95;99.99
68251;DHT22;55066;51.560;4.642;2023-05-09T12:22:00;15.08;99.99
68251;DHT22;55066;51.560;4.642;2023-05-09T12:24:27;15.06;99.99
68251;DHT22;55066;51.560;4.642;2023-05-09T12:26:54;14.91;99.99
68251;DHT22;55066;51.560;4.642;2023-05-09T12:29:23;15.28;99.99
68251;DHT22;55066;51.560;4.642;2023-05-09T12:31:51;15.39;99.99
68251;DHT22;55066;51.560;4.642;2023-05-09T12:34:16;15.35;99.99
68251;DHT22;55066;51.560;4.642;2023-05-09T12:36:43;15.25;99.99
68251;DHT22;55066;51.560;4.642;2023-05-09T12:39:19;15.42;99.99
68251;DHT22;55066;51.560;4.642;2023-05-09T12:41:48;15.43;99.99
68251;DHT22;55066;51.560;4.642;2023-05-09T12:44:24;15.49;99.99
68251;DHT22;55066;51.560;4.642;2023-05-09T12:47:01;15.33;99.99
68251;DHT22;55066;51.560;4.642;2023-05-09T12:49:28;15.21;99.99
68251;DHT22;55066;51.560;4.642;2023-05-09T12:51:54;15.19;99.99
68251;DHT22;55066;51.560;4.642;2023-05-09T12:54:25;15.25;99.99
68251;DHT22;55066;51.560;4.642;2023-05-09T12:56:52;15.09;99.99
68251;DHT22;55066;51.560;4.642;2023-05-09T12:59:25;14.92;99.99
68251;DHT22;55066;51.560;4.642;2023-05-09T13:02:00;14.87;99.99
68251;DHT22;55066;51.560;4.642;2023-05-09T13:04:27;14.83;99.99
68251;DHT22;55066;51.560;4.642;2023-05-09T13:06:55;14.99;99.99
68251;DHT22;55066;51.560;4.642;2023-05-09T13:09:23;15.11;99.99
68251;DHT22;55066;51.560;4.642;2023-05-09T13:11:49;15.14;99.99
68251;DHT22;55066;51.560;4.642;2023-05-09T13:14:15;15.18;99.99
68251;DHT22;55066;51.560;4.642;2023-05-09T13:16:43;14.99;99.99
68251;DHT22;55066;51.560;4.642;2023-05-09T13:19:09;14.77;99.99
68251;DHT22;55066;51.560;4.642;2023-05-09T13:21:34;14.74;99.99
68251;DHT22;55066;51.560;4.642;2023-05-09T13:24:00;14.76;99.99
68251;DHT22;55066;51.560;4.642;2023-05-09T13:26:25;14.67;99.99
68251;DHT22;55066;51.560;4.642;2023-05-09T13:28:54;14.64;99.99
68251;DHT22;55066;51.560;4.642;2023-05-09T13:31:21;14.80;99.99
68251;DHT22;55066;51.560;4.642;2023-05-09T13:33:50;14.88;99.99
68251;DHT22;55066;51.560;4.642;2023-05-09T13:36:15;14.91;99.99
68251;DHT22;55066;51.560;4.642;2023-05-09T13:38:41;14.80;99.99
68251;DHT22;55066;51.560;4.642;2023-05-09T13:41:07;14.78;99.99
68251;DHT22;55066;51.560;4.642;2023-05-09T13:43:33;14.80;99.99
68251;DHT22;55066;51.560;4.642;2023-05-09T13:45:59;14.95;99.99
68251;DHT22;55066;51.560;4.642;2023-05-09T13:48:24;14.88;99.99
68251;DHT22;55066;51.560;4.642;2023-05-09T13:50:51;14.80;99.99
68251;DHT22;55066;51.560;4.642;2023-05-09T13:53:16;14.78;99.99
68251;DHT22;55066;51.560;4.642;2023-05-09T13:55:42;14.70;99.99
68251;DHT22;55066;51.560;4.642;2023-05-09T13:58:08;14.73;99.99
68251;DHT22;55066;51.560;4.642;2023-05-09T14:00:34;14.73;99.99
68251;DHT22;55066;51.560;4.642;2023-05-09T14:03:01;14.71;99.99
68251;DHT22;55066;51.560;4.642;2023-05-09T14:05:27;14.73;99.99
68251;DHT22;55066;51.560;4.642;2023-05-09T14:07:53;14.77;99.99
68251;DHT22;55066;51.560;4.642;2023-05-09T14:10:19;14.76;99.99
68251;DHT22;55066;51.560;4.642;2023-05-09T14:12:46;14.70;99.99
68251;DHT22;55066;51.560;4.642;2023-05-09T14:15:12;14.74;99.99
68251;DHT22;55066;51.560;4.642;2023-05-09T14:17:39;14.80;99.99
68251;DHT22;55066;51.560;4.642;2023-05-09T14:20:07;14.78;99.99
68251;DHT22;55066;51.560;4.642;2023-05-09T14:22:32;14.74;99.99
68251;DHT22;55066;51.560;4.642;2023-05-09T14:24:59;14.74;99.99
68251;DHT22;55066;51.560;4.642;2023-05-09T14:27:24;14.76;99.99
68251;DHT22;55066;51.560;4.642;2023-05-09T14:29:53;14.71;99.99
68251;DHT22;55066;51.560;4.642;2023-05-09T14:32:23;14.77;99.99
68251;DHT22;55066;51.560;4.642;2023-05-09T14:34:49;14.70;99.99
68251;DHT22;55066;51.560;4.642;2023-05-09T14:37:14;14.68;99.99
68251;DHT22;55066;51.560;4.642;2023-05-09T14:39:40;14.68;99.99
68251;DHT22;55066;51.560;4.642;2023-05-09T14:42:09;14.64;99.99
68251;DHT22;55066;51.560;4.642;2023-05-09T14:44:40;14.64;99.99
68251;DHT22;55066;51.560;4.642;2023-05-09T14:47:06;14.57;99.99
68251;DHT22;55066;51.560;4.642;2023-05-09T14:49:32;14.47;99.99
68251;DHT22;55066;51.560;4.642;2023-05-09T14:51:57;14.41;99.99
68251;DHT22;55066;51.560;4.642;2023-05-09T14:54:23;14.32;99.99
68251;DHT22;55066;51.560;4.642;2023-05-09T14:56:48;14.34;99.99
68251;DHT22;55066;51.560;4.642;2023-05-09T14:59:14;14.30;99.99
68251;DHT22;55066;51.560;4.642;2023-05-09T15:01:39;14.20;99.99
68251;DHT22;55066;51.560;4.642;2023-05-09T15:04:05;14.15;99.99
68251;DHT22;55066;51.560;4.642;2023-05-09T15:06:30;14.15;99.99
68251;DHT22;55066;51.560;4.642;2023-05-09T15:08:56;14.23;99.99
68251;DHT22;55066;51.560;4.642;2023-05-09T15:11:21;14.12;99.99
68251;DHT22;55066;51.560;4.642;2023-05-09T15:13:47;14.16;99.99
68251;DHT22;55066;51.560;4.642;2023-05-09T15:16:13;14.12;99.99
68251;DHT22;55066;51.560;4.642;2023-05-09T15:18:39;14.06;99.99
68251;DHT22;55066;51.560;4.642;2023-05-09T15:21:09;14.02;99.99
68251;DHT22;55066;51.560;4.642;2023-05-09T15:23:35;14.08;99.99
68251;DHT22;55066;51.560;4.642;2023-05-09T15:26:03;14.04;99.99
68251;DHT22;55066;51.560;4.642;2023-05-09T15:28:41;14.02;99.99
68251;DHT22;55066;51.560;4.642;2023-05-09T15:31:08;13.98;99.99
68251;DHT22;55066;51.560;4.642;2023-05-09T15:33:34;13.92;99.99
68251;DHT22;55066;51.560;4.642;2023-05-09T15:35:59;13.98;99.99
68251;DHT22;55066;51.560;4.642;2023-05-09T15:38:28;13.91;99.99
68251;DHT22;55066;51.560;4.642;2023-05-09T15:40:55;14.08;99.99
68251;DHT22;55066;51.560;4.642;2023-05-09T15:43:22;14.02;99.99
68251;DHT22;55066;51.560;4.642;2023-05-09T15:45:47;14.00;99.99
68251;DHT22;55066;51.560;4.642;2023-05-09T15:48:13;14.08;99.99
68251;DHT22;55066;51.560;4.642;2023-05-09T15:50:40;14.08;99.99